sensor_id;sensor_type;location;lat;lon;timestamp;pressure;altitude;pressure_sealevel;temperature;humidity
21988;BME280;11158;53.404;-1.510;2023-01-24T00:01:02;102756.66;;;5.56;59.38
21988;BME280;11158;53.404;-1.510;2023-01-24T00:03:28;102749.38;;;5.01;62.50
21988;BME280;11158;53.404;-1.510;2023-01-24T00:05:54;102760.94;;;4.70;63.42
21988;BME280;11158;53.404;-1.510;2023-01-24T00:08:20;102751.47;;;4.80;63.66
21988;BME280;11158;53.404;-1.510;2023-01-24T00:10:48;102749.91;;;4.92;63.03
21988;BME280;11158;53.404;-1.510;2023-01-24T00:13:15;102750.00;;;5.35;62.27
21988;BME280;11158;53.404;-1.510;2023-01-24T00:15:42;102750.41;;;6.00;59.69
21988;BME280;11158;53.404;-1.510;2023-01-24T00:18:08;102754.84;;;6.00;59.03
21988;BME280;11158;53.404;-1.510;2023-01-24T00:20:36;102760.75;;;6.32;58.55
21988;BME280;11158;53.404;-1.510;2023-01-24T00:23:05;102748.72;;;6.81;56.77
21988;BME280;11158;53.404;-1.510;2023-01-24T00:25:31;102749.56;;;5.71;59.53
21988;BME280;11158;53.404;-1.510;2023-01-24T00:27:56;102754.22;;;4.78;63.39
21988;BME280;11158;53.404;-1.510;2023-01-24T00:30:22;102747.13;;;5.09;62.39
21988;BME280;11158;53.404;-1.510;2023-01-24T00:32:48;102743.00;;;4.43;63.45
21988;BME280;11158;53.404;-1.510;2023-01-24T00:35:15;102742.22;;;4.57;64.74
21988;BME280;11158;53.404;-1.510;2023-01-24T00:37:41;102734.91;;;4.76;63.94
21988;BME280;11158;53.404;-1.510;2023-01-24T00:40:08;102736.94;;;4.87;63.03
21988;BME280;11158;53.404;-1.510;2023-01-24T00:42:34;102735.06;;;5.34;62.21
21988;BME280;11158;53.404;-1.510;2023-01-24T00:44:59;102732.63;;;6.15;60.24
21988;BME280;11158;53.404;-1.510;2023-01-24T00:47:25;102731.84;;;5.57;61.20
21988;BME280;11158;53.404;-1.510;2023-01-24T00:49:51;102734.75;;;6.10;60.32
21988;BME280;11158;53.404;-1.510;2023-01-24T00:52:18;102733.09;;;6.89;57.98
21988;BME280;11158;53.404;-1.510;2023-01-24T00:54:43;102725.56;;;6.96;57.46
21988;BME280;11158;53.404;-1.510;2023-01-24T00:57:11;102719.94;;;7.26;55.69
21988;BME280;11158;53.404;-1.510;2023-01-24T00:59:41;102733.50;;;6.43;57.05
21988;BME280;11158;53.404;-1.510;2023-01-24T01:02:09;102724.91;;;5.69;59.78
21988;BME280;11158;53.404;-1.510;2023-01-24T01:04:35;102732.75;;;5.13;61.70
21988;BME280;11158;53.404;-1.510;2023-01-24T01:07:05;102727.78;;;4.93;61.86
21988;BME280;11158;53.404;-1.510;2023-01-24T01:09:36;102725.50;;;5.45;61.22
21988;BME280;11158;53.404;-1.510;2023-01-24T01:12:02;102730.09;;;5.56;60.73
21988;BME280;11158;53.404;-1.510;2023-01-24T01:14:33;102718.06;;;6.35;58.82
21988;BME280;11158;53.404;-1.510;2023-01-24T01:17:02;102709.66;;;6.56;57.70
21988;BME280;11158;53.404;-1.510;2023-01-24T01:19:31;102707.63;;;6.59;58.11
21988;BME280;11158;53.404;-1.510;2023-01-24T01:22:00;102710.16;;;7.13;56.06
21988;BME280;11158;53.404;-1.510;2023-01-24T01:24:32;102699.66;;;7.38;55.26
21988;BME280;11158;53.404;-1.510;2023-01-24T01:27:00;102703.56;;;7.19;55.22
21988;BME280;11158;53.404;-1.510;2023-01-24T01:29:33;102714.13;;;7.08;55.61
21988;BME280;11158;53.404;-1.510;2023-01-24T01:31:59;102719.50;;;6.81;55.70
21988;BME280;11158;53.404;-1.510;2023-01-24T01:34:24;102723.13;;;6.92;55.83
21988;BME280;11158;53.404;-1.510;2023-01-24T01:36:50;102729.25;;;6.80;55.75
21988;BME280;11158;53.404;-1.510;2023-01-24T01:39:16;102728.56;;;7.04;55.79
21988;BME280;11158;53.404;-1.510;2023-01-24T01:41:42;102736.06;;;6.84;55.60
21988;BME280;11158;53.404;-1.510;2023-01-24T01:49:32;102741.03;;;6.63;55.21
21988;BME280;11158;53.404;-1.510;2023-01-24T01:52:02;102737.22;;;5.70;58.24
21988;BME280;11158;53.404;-1.510;2023-01-24T01:54:38;102740.53;;;4.56;62.59
21988;BME280;11158;53.404;-1.510;2023-01-24T01:57:11;102745.41;;;4.48;63.52
21988;BME280;11158;53.404;-1.510;2023-01-24T01:59:40;102740.97;;;4.16;65.17
21988;BME280;11158;53.404;-1.510;2023-01-24T02:02:09;102740.81;;;4.35;65.03
21988;BME280;11158;53.404;-1.510;2023-01-24T02:04:36;102744.56;;;4.31;64.71
21988;BME280;11158;53.404;-1.510;2023-01-24T02:07:08;102746.50;;;4.44;64.84
21988;BME280;11158;53.404;-1.510;2023-01-24T02:09:47;102745.19;;;4.67;64.22
21988;BME280;11158;53.404;-1.510;2023-01-24T02:12:26;102744.75;;;4.74;63.57
21988;BME280;11158;53.404;-1.510;2023-01-24T02:14:58;102746.28;;;4.62;64.33
21988;BME280;11158;53.404;-1.510;2023-01-24T02:17:43;102750.47;;;4.97;63.91
21988;BME280;11158;53.404;-1.510;2023-01-24T02:20:36;102747.44;;;5.19;62.43
21988;BME280;11158;53.404;-1.510;2023-01-24T02:29:07;102740.09;;;6.37;58.27
21988;BME280;11158;53.404;-1.510;2023-01-24T02:31:57;102743.41;;;6.81;57.11
21988;BME280;11158;53.404;-1.510;2023-01-24T02:34:33;102740.75;;;6.81;55.93
21988;BME280;11158;53.404;-1.510;2023-01-24T02:37:06;102737.88;;;6.84;56.03
21988;BME280;11158;53.404;-1.510;2023-01-24T02:42:08;102745.66;;;5.34;59.79
21988;BME280;11158;53.404;-1.510;2023-01-24T02:47:14;102749.63;;;5.84;59.30
21988;BME280;11158;53.404;-1.510;2023-01-24T02:49:40;102749.63;;;6.13;58.22
21988;BME280;11158;53.404;-1.510;2023-01-24T02:52:07;102749.53;;;6.41;57.86
21988;BME280;11158;53.404;-1.510;2023-01-24T02:54:52;102749.84;;;6.64;57.17
21988;BME280;11158;53.404;-1.510;2023-01-24T02:57:17;102749.41;;;6.97;55.92
21988;BME280;11158;53.404;-1.510;2023-01-24T03:00:06;102748.63;;;6.82;55.27
21988;BME280;11158;53.404;-1.510;2023-01-24T03:02:33;102751.31;;;6.28;56.61
21988;BME280;11158;53.404;-1.510;2023-01-24T03:04:59;102754.88;;;5.57;58.84
21988;BME280;11158;53.404;-1.510;2023-01-24T03:07:24;102748.97;;;4.93;62.13
21988;BME280;11158;53.404;-1.510;2023-01-24T03:09:50;102747.56;;;5.32;61.36
21988;BME280;11158;53.404;-1.510;2023-01-24T03:12:16;102748.09;;;5.22;60.60
21988;BME280;11158;53.404;-1.510;2023-01-24T03:15:00;102748.97;;;5.52;61.54
21988;BME280;11158;53.404;-1.510;2023-01-24T03:17:44;102758.34;;;4.68;63.42
21988;BME280;11158;53.404;-1.510;2023-01-24T03:20:28;102750.06;;;5.19;62.98
21988;BME280;11158;53.404;-1.510;2023-01-24T03:23:13;102750.56;;;5.54;61.14
21988;BME280;11158;53.404;-1.510;2023-01-24T03:25:58;102753.59;;;4.59;62.42
21988;BME280;11158;53.404;-1.510;2023-01-24T03:28:43;102753.09;;;4.82;63.01
21988;BME280;11158;53.404;-1.510;2023-01-24T03:31:28;102743.34;;;5.13;63.04
21988;BME280;11158;53.404;-1.510;2023-01-24T03:34:12;102744.72;;;5.78;60.92
21988;BME280;11158;53.404;-1.510;2023-01-24T03:36:59;102743.50;;;6.25;59.02
21988;BME280;11158;53.404;-1.510;2023-01-24T03:39:25;102743.22;;;6.57;58.40
21988;BME280;11158;53.404;-1.510;2023-01-24T03:42:09;102742.66;;;6.79;57.02
21988;BME280;11158;53.404;-1.510;2023-01-24T03:44:37;102732.25;;;6.88;56.06
21988;BME280;11158;53.404;-1.510;2023-01-24T03:47:03;102738.16;;;6.66;55.82
21988;BME280;11158;53.404;-1.510;2023-01-24T03:49:30;102745.63;;;6.20;57.37
21988;BME280;11158;53.404;-1.510;2023-01-24T03:52:15;102748.88;;;5.67;59.24
21988;BME280;11158;53.404;-1.510;2023-01-24T03:54:57;102749.06;;;6.07;57.87
21988;BME280;11158;53.404;-1.510;2023-01-24T03:57:23;102750.44;;;6.55;57.60
21988;BME280;11158;53.404;-1.510;2023-01-24T03:59:49;102741.25;;;6.73;56.77
21988;BME280;11158;53.404;-1.510;2023-01-24T04:02:15;102743.03;;;6.60;56.17
21988;BME280;11158;53.404;-1.510;2023-01-24T04:04:41;102742.84;;;6.63;57.02
21988;BME280;11158;53.404;-1.510;2023-01-24T04:07:26;102744.63;;;6.89;55.77
21988;BME280;11158;53.404;-1.510;2023-01-24T04:09:52;102735.75;;;6.76;55.62
21988;BME280;11158;53.404;-1.510;2023-01-24T04:12:18;102752.09;;;6.01;57.32
21988;BME280;11158;53.404;-1.510;2023-01-24T04:14:44;102740.38;;;5.48;59.73
21988;BME280;11158;53.404;-1.510;2023-01-24T04:17:10;102742.91;;;5.35;60.44
21988;BME280;11158;53.404;-1.510;2023-01-24T04:19:36;102741.06;;;5.21;60.58
21988;BME280;11158;53.404;-1.510;2023-01-24T04:22:02;102740.53;;;5.31;60.88
21988;BME280;11158;53.404;-1.510;2023-01-24T04:24:35;102733.34;;;4.88;62.25
21988;BME280;11158;53.404;-1.510;2023-01-24T04:27:02;102742.44;;;5.43;61.51
21988;BME280;11158;53.404;-1.510;2023-01-24T04:29:28;102736.47;;;5.97;59.92
21988;BME280;11158;53.404;-1.510;2023-01-24T04:31:53;102739.38;;;6.21;58.49
21988;BME280;11158;53.404;-1.510;2023-01-24T04:34:19;102737.22;;;6.40;58.06
21988;BME280;11158;53.404;-1.510;2023-01-24T04:36:45;102738.16;;;6.66;56.51
21988;BME280;11158;53.404;-1.510;2023-01-24T04:39:11;102735.44;;;6.93;55.72
21988;BME280;11158;53.404;-1.510;2023-01-24T04:41:37;102743.50;;;6.79;55.42
21988;BME280;11158;53.404;-1.510;2023-01-24T04:44:03;102745.69;;;6.60;56.31
21988;BME280;11158;53.404;-1.510;2023-01-24T04:46:30;102748.81;;;6.25;56.85
21988;BME280;11158;53.404;-1.510;2023-01-24T05:01:48;102757.69;;;5.82;59.60
21988;BME280;11158;53.404;-1.510;2023-01-24T05:04:14;102757.38;;;6.16;58.63
21988;BME280;11158;53.404;-1.510;2023-01-24T05:06:41;102751.75;;;6.62;57.34
21988;BME280;11158;53.404;-1.510;2023-01-24T05:09:07;102754.97;;;6.67;56.38
21988;BME280;11158;53.404;-1.510;2023-01-24T05:11:32;102763.56;;;6.58;56.93
21988;BME280;11158;53.404;-1.510;2023-01-24T05:13:58;102757.56;;;6.81;56.47
21988;BME280;11158;53.404;-1.510;2023-01-24T05:16:25;102755.03;;;6.92;55.44
21988;BME280;11158;53.404;-1.510;2023-01-24T05:18:50;102756.66;;;6.68;55.34
21988;BME280;11158;53.404;-1.510;2023-01-24T05:21:17;102752.19;;;6.68;56.06
21988;BME280;11158;53.404;-1.510;2023-01-24T05:23:51;102756.19;;;6.34;56.60
21988;BME280;11158;53.404;-1.510;2023-01-24T05:26:18;102755.66;;;6.56;56.63
21988;BME280;11158;53.404;-1.510;2023-01-24T05:28:44;102763.41;;;6.74;55.94
21988;BME280;11158;53.404;-1.510;2023-01-24T05:31:10;102756.63;;;6.95;55.47
21988;BME280;11158;53.404;-1.510;2023-01-24T05:33:36;102769.00;;;6.69;55.88
21988;BME280;11158;53.404;-1.510;2023-01-24T05:36:08;102766.16;;;6.45;56.51
21988;BME280;11158;53.404;-1.510;2023-01-24T05:38:34;102769.22;;;6.24;57.32
21988;BME280;11158;53.404;-1.510;2023-01-24T05:41:02;102768.50;;;6.49;56.77
21988;BME280;11158;53.404;-1.510;2023-01-24T05:43:29;102769.31;;;6.37;56.42
21988;BME280;11158;53.404;-1.510;2023-01-24T05:45:59;102767.53;;;6.23;56.80
21988;BME280;11158;53.404;-1.510;2023-01-24T05:48:26;102768.13;;;5.71;58.41
21988;BME280;11158;53.404;-1.510;2023-01-24T05:50:59;102775.22;;;5.85;58.70
21988;BME280;11158;53.404;-1.510;2023-01-24T05:53:27;102764.75;;;6.39;57.67
21988;BME280;11158;53.404;-1.510;2023-01-24T05:55:58;102759.47;;;6.79;56.23
21988;BME280;11158;53.404;-1.510;2023-01-24T05:58:27;102761.47;;;6.76;55.41
21988;BME280;11158;53.404;-1.510;2023-01-24T06:00:52;102769.41;;;6.63;56.07
21988;BME280;11158;53.404;-1.510;2023-01-24T06:03:19;102767.97;;;6.71;55.77
21988;BME280;11158;53.404;-1.510;2023-01-24T06:05:50;102762.47;;;6.87;55.67
21988;BME280;11158;53.404;-1.510;2023-01-24T06:08:16;102759.63;;;7.03;54.88
21988;BME280;11158;53.404;-1.510;2023-01-24T06:10:42;102759.00;;;7.12;54.53
21988;BME280;11158;53.404;-1.510;2023-01-24T06:13:09;102764.59;;;6.95;54.50
21988;BME280;11158;53.404;-1.510;2023-01-24T06:15:35;102761.72;;;6.85;54.73
21988;BME280;11158;53.404;-1.510;2023-01-24T06:18:01;102768.13;;;6.68;55.86
21988;BME280;11158;53.404;-1.510;2023-01-24T06:20:28;102770.75;;;6.56;56.40
21988;BME280;11158;53.404;-1.510;2023-01-24T06:22:59;102773.75;;;6.64;56.05
21988;BME280;11158;53.404;-1.510;2023-01-24T06:25:27;102774.50;;;6.66;56.20
21988;BME280;11158;53.404;-1.510;2023-01-24T06:27:53;102764.25;;;6.87;55.24
21988;BME280;11158;53.404;-1.510;2023-01-24T06:30:19;102777.38;;;6.90;55.30
21988;BME280;11158;53.404;-1.510;2023-01-24T06:36:09;102779.00;;;7.18;54.86
21988;BME280;11158;53.404;-1.510;2023-01-24T06:38:36;102771.22;;;7.02;54.07
21988;BME280;11158;53.404;-1.510;2023-01-24T06:41:02;102786.44;;;6.73;55.19
21988;BME280;11158;53.404;-1.510;2023-01-24T06:43:29;102786.81;;;6.81;55.29
21988;BME280;11158;53.404;-1.510;2023-01-24T06:45:55;102784.22;;;6.67;55.86
21988;BME280;11158;53.404;-1.510;2023-01-24T06:48:21;102788.19;;;6.87;55.91
21988;BME280;11158;53.404;-1.510;2023-01-24T06:50:47;102789.53;;;7.07;55.17
21988;BME280;11158;53.404;-1.510;2023-01-24T06:53:13;102784.44;;;7.29;54.38
21988;BME280;11158;53.404;-1.510;2023-01-24T06:55:43;102778.72;;;7.61;53.84
21988;BME280;11158;53.404;-1.510;2023-01-24T06:58:09;102786.19;;;7.56;53.43
21988;BME280;11158;53.404;-1.510;2023-01-24T07:00:35;102790.97;;;7.38;54.51
21988;BME280;11158;53.404;-1.510;2023-01-24T07:03:06;102787.00;;;7.69;54.18
21988;BME280;11158;53.404;-1.510;2023-01-24T07:05:36;102787.53;;;8.00;53.31
21988;BME280;11158;53.404;-1.510;2023-01-24T07:08:03;102791.50;;;7.82;53.27
21988;BME280;11158;53.404;-1.510;2023-01-24T07:10:29;102787.84;;;7.83;53.86
21988;BME280;11158;53.404;-1.510;2023-01-24T07:12:55;102797.44;;;7.98;53.60
21988;BME280;11158;53.404;-1.510;2023-01-24T07:15:22;102777.13;;;8.21;53.54
21988;BME280;11158;53.404;-1.510;2023-01-24T07:17:48;102791.69;;;7.79;52.88
21988;BME280;11158;53.404;-1.510;2023-01-24T07:20:14;102790.31;;;7.73;54.21
21988;BME280;11158;53.404;-1.510;2023-01-24T07:22:42;102783.38;;;7.83;53.62
21988;BME280;11158;53.404;-1.510;2023-01-24T07:25:12;102793.84;;;7.86;53.67
21988;BME280;11158;53.404;-1.510;2023-01-24T07:27:39;102793.38;;;8.05;53.48
21988;BME280;11158;53.404;-1.510;2023-01-24T07:30:05;102791.00;;;8.13;53.05
21988;BME280;11158;53.404;-1.510;2023-01-24T07:32:31;102793.41;;;7.67;54.09
21988;BME280;11158;53.404;-1.510;2023-01-24T07:34:57;102797.72;;;8.06;53.24
21988;BME280;11158;53.404;-1.510;2023-01-24T07:37:23;102804.22;;;8.15;52.88
21988;BME280;11158;53.404;-1.510;2023-01-24T07:39:48;102810.38;;;8.41;52.69
21988;BME280;11158;53.404;-1.510;2023-01-24T07:42:15;102805.22;;;8.38;52.26
21988;BME280;11158;53.404;-1.510;2023-01-24T07:44:40;102801.69;;;7.88;53.21
21988;BME280;11158;53.404;-1.510;2023-01-24T07:47:06;102795.94;;;7.94;54.10
21988;BME280;11158;53.404;-1.510;2023-01-24T07:49:31;102786.97;;;8.08;53.47
21988;BME280;11158;53.404;-1.510;2023-01-24T07:51:58;102802.41;;;8.15;53.26
21988;BME280;11158;53.404;-1.510;2023-01-24T07:54:23;102801.59;;;8.39;53.06
21988;BME280;11158;53.404;-1.510;2023-01-24T07:56:49;102803.63;;;8.48;52.07
21988;BME280;11158;53.404;-1.510;2023-01-24T07:59:15;102803.13;;;8.43;52.53
21988;BME280;11158;53.404;-1.510;2023-01-24T08:01:41;102809.41;;;8.42;52.38
21988;BME280;11158;53.404;-1.510;2023-01-24T08:04:06;102816.09;;;8.35;52.85
21988;BME280;11158;53.404;-1.510;2023-01-24T08:06:32;102820.59;;;8.34;52.37
21988;BME280;11158;53.404;-1.510;2023-01-24T08:08:58;102822.41;;;8.34;52.46
21988;BME280;11158;53.404;-1.510;2023-01-24T08:11:24;102823.25;;;7.72;52.12
21988;BME280;11158;53.404;-1.510;2023-01-24T08:13:50;102829.59;;;7.69;53.11
21988;BME280;11158;53.404;-1.510;2023-01-24T08:16:16;102824.38;;;7.81;52.49
21988;BME280;11158;53.404;-1.510;2023-01-24T08:18:42;102828.78;;;7.56;52.84
21988;BME280;11158;53.404;-1.510;2023-01-24T08:21:10;102832.47;;;7.01;53.83
21988;BME280;11158;53.404;-1.510;2023-01-24T08:23:36;102833.22;;;7.03;54.82
21988;BME280;11158;53.404;-1.510;2023-01-24T08:26:03;102841.19;;;7.03;55.29
21988;BME280;11158;53.404;-1.510;2023-01-24T08:28:31;102842.47;;;7.37;54.46
21988;BME280;11158;53.404;-1.510;2023-01-24T08:30:58;102848.84;;;6.67;56.49
21988;BME280;11158;53.404;-1.510;2023-01-24T08:33:42;102863.00;;;5.67;59.82
21988;BME280;11158;53.404;-1.510;2023-01-24T08:36:26;102867.59;;;6.23;60.16
21988;BME280;11158;53.404;-1.510;2023-01-24T08:39:11;102861.41;;;6.92;58.25
21988;BME280;11158;53.404;-1.510;2023-01-24T08:41:55;102855.03;;;7.48;56.49
21988;BME280;11158;53.404;-1.510;2023-01-24T08:44:39;102854.06;;;7.49;55.29
21988;BME280;11158;53.404;-1.510;2023-01-24T08:47:23;102862.19;;;7.60;55.03
21988;BME280;11158;53.404;-1.510;2023-01-24T08:50:08;102863.88;;;7.36;55.00
21988;BME280;11158;53.404;-1.510;2023-01-24T08:52:56;102864.38;;;7.01;56.57
21988;BME280;11158;53.404;-1.510;2023-01-24T08:55:40;102872.81;;;6.80;57.87
21988;BME280;11158;53.404;-1.510;2023-01-24T08:58:24;102865.44;;;6.15;60.18
21988;BME280;11158;53.404;-1.510;2023-01-24T09:01:09;102864.56;;;5.41;64.25
21988;BME280;11158;53.404;-1.510;2023-01-24T09:03:53;102868.50;;;5.79;63.52
21988;BME280;11158;53.404;-1.510;2023-01-24T09:06:39;102873.84;;;6.50;61.60
21988;BME280;11158;53.404;-1.510;2023-01-24T09:09:23;102864.78;;;6.26;61.92
21988;BME280;11158;53.404;-1.510;2023-01-24T09:12:09;102866.41;;;6.70;61.32
21988;BME280;11158;53.404;-1.510;2023-01-24T09:14:53;102859.16;;;7.26;59.70
21988;BME280;11158;53.404;-1.510;2023-01-24T09:17:37;102856.41;;;7.53;57.92
21988;BME280;11158;53.404;-1.510;2023-01-24T09:20:23;102851.25;;;7.90;57.93
21988;BME280;11158;53.404;-1.510;2023-01-24T09:23:12;102849.09;;;7.95;56.66
21988;BME280;11158;53.404;-1.510;2023-01-24T09:25:58;102851.84;;;8.19;56.17
21988;BME280;11158;53.404;-1.510;2023-01-24T09:28:42;102855.97;;;8.36;55.81
21988;BME280;11158;53.404;-1.510;2023-01-24T09:31:26;102851.44;;;8.63;55.37
21988;BME280;11158;53.404;-1.510;2023-01-24T09:33:52;102861.09;;;8.52;55.48
21988;BME280;11158;53.404;-1.510;2023-01-24T09:36:17;102867.63;;;7.06;59.61
21988;BME280;11158;53.404;-1.510;2023-01-24T09:38:43;102858.97;;;6.75;61.66
21988;BME280;11158;53.404;-1.510;2023-01-24T09:43:52;102864.94;;;6.23;64.46
21988;BME280;11158;53.404;-1.510;2023-01-24T09:48:50;102849.06;;;8.08;60.52
21988;BME280;11158;53.404;-1.510;2023-01-24T09:51:24;102841.97;;;8.09;59.02
21988;BME280;11158;53.404;-1.510;2023-01-24T09:53:57;102848.09;;;7.32;61.31
21988;BME280;11158;53.404;-1.510;2023-01-24T09:56:34;102851.75;;;7.57;61.19
21988;BME280;11158;53.404;-1.510;2023-01-24T09:59:16;102836.53;;;7.85;60.18
21988;BME280;11158;53.404;-1.510;2023-01-24T10:01:46;102837.56;;;8.08;59.46
21988;BME280;11158;53.404;-1.510;2023-01-24T10:04:16;102828.84;;;8.68;58.36
21988;BME280;11158;53.404;-1.510;2023-01-24T10:10:54;102831.03;;;9.34;56.67
21988;BME280;11158;53.404;-1.510;2023-01-24T10:13:00;102827.13;;;9.96;55.35
21988;BME280;11158;53.404;-1.510;2023-01-24T10:23:57;102824.59;;;10.72;53.37
21988;BME280;11158;53.404;-1.510;2023-01-24T10:26:41;102814.84;;;10.82;52.96
21988;BME280;11158;53.404;-1.510;2023-01-24T10:29:17;102819.25;;;11.04;52.76
21988;BME280;11158;53.404;-1.510;2023-01-24T10:32:00;102817.25;;;11.17;52.57
21988;BME280;11158;53.404;-1.510;2023-01-24T10:37:00;102806.09;;;11.33;52.09
21988;BME280;11158;53.404;-1.510;2023-01-24T10:39:29;102807.53;;;11.37;51.93
21988;BME280;11158;53.404;-1.510;2023-01-24T10:41:55;102799.69;;;11.45;51.96
21988;BME280;11158;53.404;-1.510;2023-01-24T10:44:28;102791.00;;;11.53;51.67
21988;BME280;11158;53.404;-1.510;2023-01-24T10:49:31;102785.59;;;11.74;50.82
21988;BME280;11158;53.404;-1.510;2023-01-24T10:52:19;102784.34;;;11.78;51.38
21988;BME280;11158;53.404;-1.510;2023-01-24T10:54:56;102785.63;;;11.84;51.08
21988;BME280;11158;53.404;-1.510;2023-01-24T10:57:39;102787.53;;;11.93;51.27
21988;BME280;11158;53.404;-1.510;2023-01-24T11:02:40;102785.44;;;11.97;50.98
21988;BME280;11158;53.404;-1.510;2023-01-24T11:05:09;102784.19;;;11.49;51.93
21988;BME280;11158;53.404;-1.510;2023-01-24T11:07:36;102792.59;;;10.26;55.31
21988;BME280;11158;53.404;-1.510;2023-01-24T11:10:24;102790.53;;;10.19;55.23
21988;BME280;11158;53.404;-1.510;2023-01-24T11:12:55;102778.66;;;11.20;53.07
21988;BME280;11158;53.404;-1.510;2023-01-24T11:15:30;102770.84;;;11.59;51.47
21988;BME280;11158;53.404;-1.510;2023-01-24T11:18:07;102768.44;;;11.86;51.42
21988;BME280;11158;53.404;-1.510;2023-01-24T11:20:40;102765.47;;;12.10;50.08
21988;BME280;11158;53.404;-1.510;2023-01-24T11:23:28;102762.78;;;12.20;50.22
21988;BME280;11158;53.404;-1.510;2023-01-24T11:26:01;102762.38;;;12.34;49.86
21988;BME280;11158;53.404;-1.510;2023-01-24T11:28:33;102763.50;;;12.22;49.66
21988;BME280;11158;53.404;-1.510;2023-01-24T11:31:05;102757.59;;;12.28;49.59
21988;BME280;11158;53.404;-1.510;2023-01-24T11:36:49;102759.63;;;12.65;49.62
21988;BME280;11158;53.404;-1.510;2023-01-24T11:42:55;102752.25;;;12.48;50.28
21988;BME280;11158;53.404;-1.510;2023-01-24T11:48:12;102751.69;;;12.64;50.80
21988;BME280;11158;53.404;-1.510;2023-01-24T12:01:48;102729.06;;;13.05;50.74
21988;BME280;11158;53.404;-1.510;2023-01-24T12:09:23;102721.75;;;13.54;49.80
21988;BME280;11158;53.404;-1.510;2023-01-24T12:12:08;102721.84;;;13.15;50.60
21988;BME280;11158;53.404;-1.510;2023-01-24T12:17:45;102725.25;;;12.20;52.04
21988;BME280;11158;53.404;-1.510;2023-01-24T12:23:28;102714.94;;;13.13;50.66
21988;BME280;11158;53.404;-1.510;2023-01-24T12:26:22;102708.09;;;14.21;47.69
21988;BME280;11158;53.404;-1.510;2023-01-24T12:29:08;102693.03;;;15.08;46.04
21988;BME280;11158;53.404;-1.510;2023-01-24T12:32:10;102697.13;;;13.87;47.61
21988;BME280;11158;53.404;-1.510;2023-01-24T12:37:27;102696.38;;;13.94;48.77
21988;BME280;11158;53.404;-1.510;2023-01-24T12:40:00;102691.47;;;14.79;46.38
21988;BME280;11158;53.404;-1.510;2023-01-24T12:48:32;102681.53;;;15.66;45.08
21988;BME280;11158;53.404;-1.510;2023-01-24T12:53:38;102690.13;;;14.75;47.09
21988;BME280;11158;53.404;-1.510;2023-01-24T12:56:17;102681.66;;;15.14;46.70
21988;BME280;11158;53.404;-1.510;2023-01-24T12:58:47;102683.38;;;15.58;45.36
21988;BME280;11158;53.404;-1.510;2023-01-24T13:09:52;102674.91;;;15.87;45.08
21988;BME280;11158;53.404;-1.510;2023-01-24T13:12:23;102677.59;;;14.66;47.75
21988;BME280;11158;53.404;-1.510;2023-01-24T13:14:56;102678.00;;;14.79;47.75
21988;BME280;11158;53.404;-1.510;2023-01-24T13:17:44;102677.06;;;14.88;47.84
21988;BME280;11158;53.404;-1.510;2023-01-24T13:20:17;102679.59;;;15.42;46.47
21988;BME280;11158;53.404;-1.510;2023-01-24T13:25:39;102666.97;;;15.43;47.05
21988;BME280;11158;53.404;-1.510;2023-01-24T13:28:21;102665.69;;;15.63;46.45
21988;BME280;11158;53.404;-1.510;2023-01-24T13:31:06;102660.91;;;15.91;46.31
21988;BME280;11158;53.404;-1.510;2023-01-24T13:33:40;102661.78;;;15.92;45.61
21988;BME280;11158;53.404;-1.510;2023-01-24T13:36:17;102665.84;;;15.54;46.46
21988;BME280;11158;53.404;-1.510;2023-01-24T13:38:44;102661.91;;;15.48;46.71
21988;BME280;11158;53.404;-1.510;2023-01-24T13:52:01;102654.00;;;15.89;45.97
21988;BME280;11158;53.404;-1.510;2023-01-24T13:54:35;102660.94;;;16.00;45.58
21988;BME280;11158;53.404;-1.510;2023-01-24T13:57:17;102663.13;;;15.96;45.77
21988;BME280;11158;53.404;-1.510;2023-01-24T14:02:42;102652.50;;;15.86;46.17
21988;BME280;11158;53.404;-1.510;2023-01-24T14:07:54;102656.75;;;15.20;47.25
21988;BME280;11158;53.404;-1.510;2023-01-24T14:10:43;102654.84;;;14.86;47.19
21988;BME280;11158;53.404;-1.510;2023-01-24T14:13:42;102648.34;;;15.23;46.97
21988;BME280;11158;53.404;-1.510;2023-01-24T14:16:12;102642.75;;;15.51;45.88
21988;BME280;11158;53.404;-1.510;2023-01-24T14:18:45;102647.94;;;15.79;45.40
21988;BME280;11158;53.404;-1.510;2023-01-24T14:21:17;102646.56;;;15.75;44.97
21988;BME280;11158;53.404;-1.510;2023-01-24T14:23:47;102648.84;;;15.61;44.91
21988;BME280;11158;53.404;-1.510;2023-01-24T14:26:15;102647.13;;;15.52;45.60
21988;BME280;11158;53.404;-1.510;2023-01-24T14:28:45;102644.19;;;15.72;44.84
21988;BME280;11158;53.404;-1.510;2023-01-24T14:36:41;102642.84;;;15.07;47.14
21988;BME280;11158;53.404;-1.510;2023-01-24T14:41:51;102642.63;;;15.69;46.22
21988;BME280;11158;53.404;-1.510;2023-01-24T14:47:06;102643.47;;;15.27;46.89
21988;BME280;11158;53.404;-1.510;2023-01-24T14:49:50;102653.09;;;14.77;48.88
21988;BME280;11158;53.404;-1.510;2023-01-24T14:52:20;102648.03;;;14.74;48.87
21988;BME280;11158;53.404;-1.510;2023-01-24T14:54:55;102652.94;;;15.31;47.55
21988;BME280;11158;53.404;-1.510;2023-01-24T14:57:27;102645.31;;;15.26;47.86
21988;BME280;11158;53.404;-1.510;2023-01-24T15:00:03;102653.88;;;14.52;49.55
21988;BME280;11158;53.404;-1.510;2023-01-24T15:02:29;102650.41;;;15.03;48.49
21988;BME280;11158;53.404;-1.510;2023-01-24T15:04:54;102646.22;;;15.09;48.29
21988;BME280;11158;53.404;-1.510;2023-01-24T15:07:20;102648.34;;;15.58;47.62
21988;BME280;11158;53.404;-1.510;2023-01-24T15:09:48;102650.22;;;15.65;47.19
21988;BME280;11158;53.404;-1.510;2023-01-24T15:12:32;102647.75;;;15.46;47.66
21988;BME280;11158;53.404;-1.510;2023-01-24T15:15:01;102651.41;;;15.37;47.82
21988;BME280;11158;53.404;-1.510;2023-01-24T15:17:30;102649.81;;;15.52;46.79
21988;BME280;11158;53.404;-1.510;2023-01-24T15:19:59;102650.84;;;15.59;46.70
21988;BME280;11158;53.404;-1.510;2023-01-24T15:22:26;102656.34;;;14.45;49.56
21988;BME280;11158;53.404;-1.510;2023-01-24T15:24:58;102661.81;;;14.17;50.75
21988;BME280;11158;53.404;-1.510;2023-01-24T15:38:13;102666.94;;;13.75;51.83
21988;BME280;11158;53.404;-1.510;2023-01-24T15:43:40;102664.78;;;13.51;52.26